createdAt,value
2018-11-10T00:02:20.951Z,60.67
2018-11-10T00:04:54.998Z,51.15
2018-11-10T00:07:27.461Z,58.40
2018-11-10T00:09:59.956Z,59.55
2018-11-10T00:12:33.035Z,58.65
2018-11-10T00:15:06.240Z,63.68
2018-11-10T00:17:40.441Z,56.53
2018-11-10T00:20:15.653Z,61.37
2018-11-10T00:22:51.084Z,52.70
2018-11-10T00:25:25.056Z,52.78
2018-11-10T00:27:59.923Z,50.28
2018-11-10T00:30:33.075Z,60.73
2018-11-10T00:33:08.089Z,51.63
2018-11-10T00:35:42.246Z,51.05
2018-11-10T00:38:17.027Z,58.68
2018-11-10T00:40:50.253Z,57.70
2018-11-10T00:43:28.889Z,52.13
2018-11-10T00:46:03.034Z,58.28
2018-11-10T00:48:37.147Z,57.60
2018-11-10T00:51:12.825Z,54.30
2018-11-10T00:53:47.613Z,57.27
2018-11-10T00:56:22.582Z,54.63
2018-11-10T00:58:57.829Z,53.73
2018-11-10T01:01:32.168Z,58.17
2018-11-10T01:04:06.899Z,71.67
2018-11-10T01:06:40.919Z,55.55
2018-11-10T01:09:13.755Z,60.48
2018-11-10T01:11:47.913Z,62.93
2018-11-10T01:14:21.570Z,52.55
2018-11-10T01:16:55.054Z,59.60
2018-11-10T01:19:29.469Z,53.05
2018-11-10T01:22:01.997Z,59.05
2018-11-10T01:24:35.600Z,56.73
2018-11-10T01:27:08.744Z,47.08
2018-11-10T01:29:43.922Z,53.60
2018-11-10T01:32:17.870Z,52.20
2018-11-10T01:34:50.262Z,58.02
2018-11-10T01:37:24.012Z,60.33
2018-11-10T01:39:57.057Z,56.40
2018-11-10T01:42:31.387Z,56.85
2018-11-10T01:45:05.211Z,52.33
2018-11-10T01:47:36.853Z,61.10
2018-11-10T01:57:13.416Z,59.80
2018-11-10T01:59:46.385Z,57.58
2018-11-10T02:02:27.761Z,64.37
2018-11-10T02:05:01.341Z,62.30
2018-11-10T02:07:33.264Z,55.85
2018-11-10T02:10:10.310Z,53.30
2018-11-10T02:12:44.202Z,60.73
2018-11-10T02:15:20.496Z,55.43
2018-11-10T02:17:54.552Z,58.55
2018-11-10T02:20:27.762Z,54.42
2018-11-10T02:23:03.967Z,62.98
2018-11-10T02:25:39.741Z,72.95
2018-11-10T02:28:13.652Z,66.42
2018-11-10T02:30:51.697Z,71.95
2018-11-10T02:33:24.669Z,70.78
2018-11-10T02:36:07.196Z,63.25
2018-11-10T02:38:43.787Z,66.70
2018-11-10T02:41:18.477Z,66.25
2018-11-10T02:43:56.608Z,61.92
2018-11-10T02:46:29.686Z,61.63
2018-11-10T02:49:03.960Z,65.52
2018-11-10T02:51:37.031Z,65.32
2018-11-10T02:54:10.117Z,60.15
2018-11-10T02:56:43.143Z,69.75
2018-11-10T02:59:18.872Z,59.93
2018-11-10T03:02:00.508Z,75.97
2018-11-10T03:04:44.010Z,59.70
2018-11-10T03:07:18.396Z,63.17
2018-11-10T03:09:53.151Z,63.83
2018-11-10T03:12:26.231Z,60.38
2018-11-10T03:15:01.637Z,63.65
2018-11-10T03:17:35.042Z,60.83
2018-11-10T03:20:09.131Z,70.80
2018-11-10T03:22:44.046Z,55.38
2018-11-10T03:25:19.262Z,66.60
2018-11-10T03:27:52.310Z,58.68
2018-11-10T03:30:25.527Z,54.27
2018-11-10T03:33:01.721Z,59.45
2018-11-10T03:35:35.754Z,65.92
2018-11-10T03:38:08.669Z,67.75
2018-11-10T03:40:43.026Z,70.20
2018-11-10T03:43:19.360Z,60.88
2018-11-10T03:45:54.403Z,62.17
2018-11-10T03:48:27.259Z,61.10
2018-11-10T03:51:06.657Z,69.35
2018-11-10T03:53:40.840Z,65.52
2018-11-10T03:56:22.595Z,66.77
2018-11-10T03:58:56.787Z,62.65
2018-11-10T04:01:29.852Z,66.20
2018-11-10T04:04:08.193Z,60.00
2018-11-10T04:06:42.379Z,59.58
2018-11-10T04:09:15.430Z,62.45
2018-11-10T04:11:48.211Z,49.70
2018-11-10T04:14:21.364Z,61.08
2018-11-10T04:16:55.076Z,64.17
2018-11-10T04:19:30.167Z,65.87
2018-11-10T04:22:04.148Z,62.05
2018-11-10T04:24:38.244Z,61.25
2018-11-10T04:27:11.311Z,59.93
2018-11-10T04:29:54.961Z,62.03
2018-11-10T04:32:30.035Z,57.05
2018-11-10T04:35:03.036Z,57.80
2018-11-10T04:37:40.890Z,51.95
2018-11-10T04:40:16.065Z,58.75
2018-11-10T04:42:53.441Z,61.95
2018-11-10T04:45:25.327Z,57.75
2018-11-10T04:47:58.859Z,58.25
2018-11-10T04:50:31.604Z,55.30
2018-11-10T04:53:02.771Z,64.05
2018-11-10T04:55:34.825Z,52.38
2018-11-10T04:58:08.612Z,52.67
2018-11-10T05:00:48.895Z,49.18
2018-11-10T05:03:22.126Z,53.70
2018-11-10T05:05:54.360Z,58.73
2018-11-10T05:08:29.956Z,60.70
2018-11-10T05:11:04.862Z,57.88
2018-11-10T05:13:37.956Z,57.13
2018-11-10T05:16:10.900Z,57.38
2018-11-10T05:18:44.700Z,54.83
2018-11-10T05:21:19.034Z,55.08
2018-11-10T05:23:52.167Z,54.85
2018-11-10T05:26:27.309Z,51.58
2018-11-10T05:29:01.467Z,63.98
2018-11-10T05:31:37.992Z,57.55
2018-11-10T05:34:12.269Z,54.08
2018-11-10T05:36:45.237Z,50.58
2018-11-10T05:39:18.351Z,55.35
2018-11-10T05:41:56.182Z,47.65
2018-11-10T05:44:29.355Z,55.40
2018-11-10T05:47:05.543Z,50.50
2018-11-10T05:49:48.792Z,56.45
2018-11-10T05:52:22.852Z,49.48
2018-11-10T05:54:56.895Z,50.20
2018-11-10T05:57:30.147Z,43.20
2018-11-10T06:00:03.071Z,49.08
2018-11-10T06:02:40.599Z,50.20
2018-11-10T06:05:14.948Z,55.45
2018-11-10T06:07:50.468Z,54.60
2018-11-10T06:10:23.926Z,51.65
2018-11-10T06:12:57.815Z,54.33
2018-11-10T06:15:30.556Z,48.10
2018-11-10T06:18:03.258Z,55.00
2018-11-10T06:20:35.801Z,49.75
2018-11-10T06:23:09.283Z,55.00
2018-11-10T06:25:41.818Z,52.45
2018-11-10T06:28:13.304Z,50.58
2018-11-10T06:30:44.826Z,57.05
2018-11-10T06:33:17.039Z,53.75
2018-11-10T06:35:48.653Z,47.93
2018-11-10T06:38:20.300Z,50.95
2018-11-10T06:40:55.996Z,47.33
2018-11-10T06:43:29.195Z,54.55
2018-11-10T06:46:02.226Z,45.20
2018-11-10T06:48:36.272Z,60.17
2018-11-10T06:51:10.462Z,52.73
2018-11-10T06:53:50.258Z,48.70
2018-11-10T06:56:23.216Z,55.78
2018-11-10T06:58:58.528Z,55.73
2018-11-10T07:01:31.653Z,56.53
2018-11-10T07:04:07.700Z,54.55
2018-11-10T07:06:41.211Z,60.55
2018-11-10T07:09:16.355Z,55.60
2018-11-10T07:11:59.212Z,50.63
2018-11-10T07:14:33.955Z,50.30
2018-11-10T07:17:06.817Z,53.05
2018-11-10T07:19:42.274Z,51.40
2018-11-10T07:22:16.542Z,55.08
2018-11-10T07:24:53.462Z,52.55
2018-11-10T07:27:28.205Z,45.15
2018-11-10T07:30:01.427Z,139.52
2018-11-10T07:32:34.891Z,45.50
2018-11-10T07:35:08.815Z,49.75
2018-11-10T07:37:43.020Z,48.48
2018-11-10T07:40:17.258Z,48.48
2018-11-10T07:42:50.724Z,44.55
2018-11-10T07:45:26.774Z,53.20
2018-11-10T07:47:59.816Z,64.42
2018-11-10T07:50:36.713Z,45.60
2018-11-10T07:53:09.624Z,48.05
2018-11-10T07:55:44.688Z,48.80
2018-11-10T07:58:23.755Z,56.18
2018-11-10T08:00:57.765Z,55.52
2018-11-10T08:03:32.517Z,61.88
2018-11-10T08:06:06.589Z,52.25
2018-11-10T08:08:40.762Z,50.23
2018-11-10T08:11:14.484Z,47.85
2018-11-10T08:13:49.766Z,52.03
2018-11-10T08:16:22.565Z,57.45
2018-11-10T08:18:55.748Z,52.85
2018-11-10T08:21:28.914Z,42.95
2018-11-10T08:24:02.696Z,49.53
2018-11-10T08:26:35.698Z,58.78
2018-11-10T08:29:11.570Z,49.77
2018-11-10T08:31:46.673Z,51.68
2018-11-10T08:34:21.716Z,56.20
2018-11-10T08:36:55.856Z,46.77
2018-11-10T08:39:36.120Z,56.75
2018-11-10T08:42:11.955Z,64.15
2018-11-10T08:44:46.013Z,55.48
2018-11-10T08:47:19.200Z,57.50
2018-11-10T08:49:53.753Z,53.95
2018-11-10T08:52:28.197Z,58.25
2018-11-10T08:55:05.123Z,54.33
2018-11-10T08:57:37.777Z,57.88
2018-11-10T09:00:12.649Z,50.45
2018-11-10T09:02:46.242Z,53.10
2018-11-10T09:05:19.672Z,52.43
2018-11-10T09:07:52.198Z,59.93
2018-11-10T09:10:26.733Z,56.25
2018-11-10T09:13:02.000Z,52.10
2018-11-10T09:15:35.095Z,57.50
2018-11-10T09:18:08.621Z,47.70
2018-11-10T09:20:43.700Z,57.23
2018-11-10T09:23:19.055Z,52.25
2018-11-10T09:25:52.176Z,58.58
2018-11-10T09:28:26.294Z,47.67
2018-11-10T09:30:59.931Z,54.77
2018-11-10T09:33:34.816Z,57.78
2018-11-10T09:36:09.452Z,63.58
2018-11-10T09:38:48.026Z,49.60
2018-11-10T09:41:22.877Z,48.25
2018-11-10T09:43:56.992Z,51.65
2018-11-10T09:46:30.424Z,51.98
2018-11-10T09:49:04.015Z,56.15
2018-11-10T09:51:37.646Z,52.48
2018-11-10T09:54:09.225Z,54.33
2018-11-10T09:56:41.657Z,55.78
2018-11-10T09:59:15.197Z,51.60
2018-11-10T10:01:48.173Z,44.98
2018-11-10T10:04:21.405Z,44.65
2018-11-10T10:06:53.585Z,41.28
2018-11-10T10:09:26.518Z,45.98
2018-11-10T10:12:00.110Z,47.62
2018-11-10T10:14:34.982Z,40.50
2018-11-10T10:17:10.900Z,48.35
2018-11-10T10:19:43.450Z,40.98
2018-11-10T10:22:16.240Z,51.48
2018-11-10T10:24:49.565Z,36.55
2018-11-10T10:27:22.279Z,38.02
2018-11-10T10:29:58.716Z,35.20
2018-11-10T10:32:32.407Z,35.73
2018-11-10T10:35:04.948Z,39.67
2018-11-10T10:37:38.768Z,33.88
2018-11-10T10:40:14.052Z,30.30
2018-11-10T10:42:47.617Z,32.80
2018-11-10T10:45:25.776Z,34.00
2018-11-10T10:47:59.813Z,34.45
2018-11-10T10:50:34.950Z,32.25
2018-11-10T10:53:08.941Z,47.30
2018-11-10T10:55:42.229Z,33.70
2018-11-10T10:58:15.299Z,34.70
2018-11-10T11:00:53.076Z,39.20
2018-11-10T11:03:31.858Z,42.60
2018-11-10T11:06:08.271Z,47.27
2018-11-10T11:08:42.593Z,34.58
2018-11-10T11:11:16.999Z,33.95
2018-11-10T11:13:52.205Z,38.23
2018-11-10T11:16:27.132Z,41.00
2018-11-10T11:19:04.872Z,33.60
2018-11-10T11:21:38.169Z,36.58
2018-11-10T11:24:11.525Z,35.52
2018-11-10T11:26:55.804Z,35.13
2018-11-10T11:29:30.549Z,33.02
2018-11-10T11:32:06.334Z,34.83
2018-11-10T11:34:41.581Z,34.58
2018-11-10T11:37:17.091Z,27.80
2018-11-10T11:39:50.982Z,28.62
2018-11-10T11:42:24.977Z,28.77
2018-11-10T11:44:59.112Z,35.52
2018-11-10T11:47:35.600Z,30.05
2018-11-10T11:50:14.974Z,32.98
2018-11-10T11:52:48.195Z,36.25
2018-11-10T11:55:21.896Z,32.83
2018-11-10T11:57:58.237Z,29.77
2018-11-10T12:00:37.054Z,35.92
2018-11-10T12:03:10.289Z,27.25
2018-11-10T12:05:44.993Z,30.57
2018-11-10T12:08:18.878Z,29.52
2018-11-10T12:10:53.556Z,31.65
2018-11-10T12:13:27.581Z,27.87
2018-11-10T12:16:00.971Z,26.50
2018-11-10T12:18:34.935Z,28.90
2018-11-10T12:21:09.420Z,25.27
2018-11-10T12:23:43.116Z,25.10
2018-11-10T12:28:55.729Z,26.82
2018-11-10T12:31:28.953Z,25.90
2018-11-10T12:34:01.977Z,28.87
2018-11-10T12:36:36.181Z,30.90
2018-11-10T12:39:10.425Z,31.00
2018-11-10T12:41:46.444Z,27.13
2018-11-10T12:44:23.336Z,27.73
2018-11-10T12:46:56.280Z,23.25
2018-11-10T12:49:28.473Z,24.72
2018-11-10T12:52:00.530Z,28.12
2018-11-10T12:54:33.573Z,24.63
2018-11-10T12:57:06.267Z,27.80
2018-11-10T12:59:39.543Z,23.87
2018-11-10T13:02:12.775Z,34.92
2018-11-10T13:04:45.593Z,31.17
2018-11-10T13:07:17.481Z,29.63
2018-11-10T13:09:50.035Z,27.70
2018-11-10T13:12:31.523Z,29.25
2018-11-10T13:15:04.516Z,33.40
2018-11-10T13:17:37.614Z,26.05
2018-11-10T13:20:13.519Z,25.72
2018-11-10T13:22:49.765Z,30.68
2018-11-10T13:25:25.524Z,23.52
2018-11-10T13:28:07.112Z,36.23
2018-11-10T13:30:40.208Z,25.92
2018-11-10T13:33:17.741Z,25.55
2018-11-10T13:35:52.092Z,23.25
2018-11-10T13:38:25.199Z,26.17
2018-11-10T13:41:00.320Z,29.35
2018-11-10T13:43:35.315Z,27.85
2018-11-10T13:46:08.131Z,24.67
2018-11-10T13:48:42.338Z,29.55
2018-11-10T13:51:15.373Z,26.20
2018-11-10T13:53:47.895Z,33.85
2018-11-10T13:56:20.103Z,22.52
2018-11-10T13:58:52.903Z,31.35
2018-11-10T14:01:26.619Z,26.30
2018-11-10T14:04:00.287Z,29.87
2018-11-10T14:06:37.617Z,26.33
2018-11-10T14:09:13.328Z,25.60
2018-11-10T14:11:47.841Z,29.95
2018-11-10T14:14:22.515Z,27.37
2018-11-10T14:16:55.620Z,27.48
2018-11-10T14:19:32.289Z,23.87
2018-11-10T14:22:06.814Z,26.75
2018-11-10T14:24:44.433Z,27.30
2018-11-10T14:27:17.341Z,26.05
2018-11-10T14:29:55.823Z,28.38
2018-11-10T14:32:29.016Z,32.25
2018-11-10T14:35:04.758Z,32.45
2018-11-10T14:37:42.647Z,30.40
2018-11-10T14:40:19.522Z,24.60
2018-11-10T14:42:53.314Z,27.37
2018-11-10T14:45:27.405Z,24.98
2018-11-10T14:48:01.568Z,33.80
2018-11-10T14:50:34.947Z,23.65
2018-11-10T14:53:09.197Z,23.05
2018-11-10T14:55:42.513Z,24.67
2018-11-10T14:58:16.022Z,23.80
2018-11-10T15:00:51.235Z,24.02
2018-11-10T15:03:26.039Z,28.07
2018-11-10T15:06:00.115Z,23.75
2018-11-10T15:08:35.165Z,25.05
2018-11-10T15:11:09.222Z,26.73
2018-11-10T15:13:43.749Z,26.37
2018-11-10T15:16:24.761Z,34.67
2018-11-10T15:19:02.505Z,21.85
2018-11-10T15:21:37.676Z,22.93
2018-11-10T15:24:19.065Z,19.17
2018-11-10T15:26:54.074Z,22.90
2018-11-10T15:29:27.293Z,19.20
2018-11-10T15:32:00.242Z,26.42
2018-11-10T15:34:38.846Z,22.02
2018-11-10T15:37:16.664Z,22.77
2018-11-10T15:39:51.469Z,25.15
2018-11-10T15:42:28.334Z,19.67
2018-11-10T15:45:03.265Z,19.82
2018-11-10T15:47:36.897Z,27.67
2018-11-10T15:50:13.892Z,24.52
2018-11-10T15:52:46.661Z,23.10
2018-11-10T15:55:20.951Z,24.18
2018-11-10T15:58:01.836Z,23.32
2018-11-10T16:00:36.440Z,26.77
2018-11-10T16:03:11.053Z,24.35
2018-11-10T16:05:44.536Z,23.22
2018-11-10T16:08:17.955Z,20.68
2018-11-10T16:10:50.581Z,19.65
2018-11-10T16:13:23.754Z,22.65
2018-11-10T16:15:56.960Z,18.92
2018-11-10T16:18:30.250Z,24.98
2018-11-10T16:21:04.185Z,60.75
2018-11-10T16:23:38.504Z,33.25
2018-11-10T16:26:12.521Z,35.70
2018-11-10T16:28:45.176Z,31.50
2018-11-10T16:31:19.092Z,38.53
2018-11-10T16:33:52.459Z,40.23
2018-11-10T16:36:26.484Z,36.40
2018-11-10T16:39:01.037Z,38.98
2018-11-10T16:41:34.402Z,32.70
2018-11-10T16:44:12.745Z,44.70
2018-11-10T16:46:50.582Z,36.38
2018-11-10T16:49:24.077Z,36.33
2018-11-10T16:52:00.694Z,31.87
2018-11-10T16:54:33.989Z,44.13
2018-11-10T16:57:07.081Z,38.55
2018-11-10T16:59:41.318Z,44.67
2018-11-10T17:02:14.917Z,36.95
2018-11-10T17:04:48.824Z,35.20
2018-11-10T17:07:23.893Z,28.73
2018-11-10T17:10:01.686Z,32.80
2018-11-10T17:12:35.317Z,26.50
2018-11-10T17:15:09.117Z,33.60
2018-11-10T17:17:46.120Z,28.05
2018-11-10T17:20:19.416Z,37.00
2018-11-10T17:22:53.587Z,25.17
2018-11-10T17:25:27.767Z,39.38
2018-11-10T17:28:00.529Z,29.87
2018-11-10T17:30:34.517Z,37.15
2018-11-10T17:33:16.412Z,39.30
2018-11-10T17:35:49.430Z,38.30
2018-11-10T17:38:22.980Z,41.88
2018-11-10T17:40:55.546Z,44.00
2018-11-10T17:43:29.090Z,33.20
2018-11-10T17:46:01.942Z,42.80
2018-11-10T17:48:34.926Z,57.83
2018-11-10T17:51:07.920Z,43.80
2018-11-10T17:53:40.816Z,41.28
2018-11-10T17:56:14.909Z,45.83
2018-11-10T17:58:47.793Z,49.85
2018-11-10T18:01:20.726Z,47.98
2018-11-10T18:03:53.555Z,38.98
2018-11-10T18:06:27.864Z,51.05
2018-11-10T18:09:01.952Z,36.08
2018-11-10T18:11:44.005Z,47.80
2018-11-10T18:14:16.669Z,47.05
2018-11-10T18:16:49.627Z,45.17
2018-11-10T18:19:22.417Z,51.05
2018-11-10T18:22:02.858Z,44.48
2018-11-10T18:24:35.912Z,45.12
2018-11-10T18:27:09.475Z,38.55
2018-11-10T18:29:42.497Z,41.73
2018-11-10T18:32:15.655Z,37.93
2018-11-10T18:34:49.625Z,46.15
2018-11-10T18:37:22.732Z,35.38
2018-11-10T18:39:55.620Z,39.63
2018-11-10T18:42:28.439Z,39.27
2018-11-10T18:45:01.355Z,40.05
2018-11-10T18:47:35.619Z,38.40
2018-11-10T18:50:12.107Z,39.35
2018-11-10T18:52:45.195Z,32.15
2018-11-10T18:55:19.334Z,34.78
2018-11-10T18:57:53.391Z,35.92
2018-11-10T19:00:27.398Z,34.65
2018-11-10T19:03:00.355Z,36.68
2018-11-10T19:05:33.320Z,31.70
2018-11-10T19:08:06.449Z,42.25
2018-11-10T19:10:39.684Z,41.75
2018-11-10T19:13:12.415Z,33.15
2018-11-10T19:15:45.844Z,38.42
2018-11-10T19:18:18.904Z,38.73
2018-11-10T19:20:51.747Z,47.30
2018-11-10T19:23:25.798Z,39.98
2018-11-10T19:26:00.630Z,39.08
2018-11-10T19:28:33.451Z,38.83
2018-11-10T19:31:07.106Z,33.15
2018-11-10T19:33:40.173Z,34.98
2018-11-10T19:36:13.258Z,41.08
2018-11-10T19:38:46.087Z,38.33
2018-11-10T19:41:28.135Z,35.78
2018-11-10T19:44:02.355Z,45.45
2018-11-10T19:46:36.357Z,34.05
2018-11-10T19:49:10.657Z,33.18
2018-11-10T19:51:43.815Z,36.25
2018-11-10T19:54:16.541Z,28.35
2018-11-10T19:56:49.620Z,25.80
2018-11-10T19:59:22.164Z,21.05
2018-11-10T20:01:57.520Z,24.70
2018-11-10T20:04:31.484Z,24.10
2018-11-10T20:07:05.627Z,22.67
2018-11-10T20:09:38.405Z,30.30
2018-11-10T20:12:11.978Z,25.52
2018-11-10T20:14:44.401Z,21.12
2018-11-10T20:17:17.120Z,21.73
2018-11-10T20:19:49.990Z,20.02
2018-11-10T20:22:22.685Z,24.35
2018-11-10T20:24:54.187Z,20.00
2018-11-10T20:27:25.464Z,24.23
2018-11-10T20:29:56.957Z,26.48
2018-11-10T20:32:28.572Z,26.00
2018-11-10T20:35:01.220Z,27.82
2018-11-10T20:37:34.767Z,25.12
2018-11-10T20:40:06.662Z,24.30
2018-11-10T20:42:39.716Z,27.93
2018-11-10T20:45:14.909Z,27.20
2018-11-10T20:47:47.668Z,27.45
2018-11-10T20:50:21.906Z,28.50
2018-11-10T20:52:54.671Z,28.30
2018-11-10T20:55:23.420Z,29.32
2018-11-10T20:57:52.080Z,26.50
2018-11-10T21:00:22.024Z,26.93
2018-11-10T21:02:50.781Z,30.35
2018-11-10T21:05:19.545Z,33.30
2018-11-10T21:07:48.317Z,28.60
2018-11-10T21:10:18.383Z,32.38
2018-11-10T21:12:47.757Z,26.30
2018-11-10T21:15:16.924Z,25.20
2018-11-10T21:17:50.355Z,28.35
2018-11-10T21:20:24.576Z,27.37
2018-11-10T21:22:57.790Z,37.60
2018-11-10T21:25:32.357Z,31.75
2018-11-10T21:28:06.107Z,33.30
2018-11-10T21:30:39.869Z,35.38
2018-11-10T21:33:13.403Z,31.23
2018-11-10T21:35:47.426Z,28.65
2018-11-10T21:38:21.104Z,31.70
2018-11-10T21:40:55.349Z,39.23
2018-11-10T21:43:35.899Z,39.63
2018-11-10T21:46:10.035Z,38.88
2018-11-10T21:48:48.335Z,39.20
2018-11-10T21:51:21.986Z,35.50
2018-11-10T21:53:57.285Z,32.30
2018-11-10T21:56:31.647Z,33.78
2018-11-10T21:59:04.970Z,32.35
2018-11-10T22:01:39.044Z,32.98
2018-11-10T22:04:16.842Z,32.95
2018-11-10T22:06:51.794Z,31.77
2018-11-10T22:09:26.056Z,29.20
2018-11-10T22:12:00.732Z,34.70
2018-11-10T22:14:33.669Z,26.12
2018-11-10T22:17:06.726Z,32.95
2018-11-10T22:19:39.835Z,24.25
2018-11-10T22:22:12.574Z,25.45
2018-11-10T22:24:46.116Z,27.77
2018-11-10T22:27:19.227Z,23.47
2018-11-10T22:29:51.883Z,28.05
2018-11-10T22:32:24.407Z,27.00
2018-11-10T22:34:57.311Z,30.08
2018-11-10T22:37:30.845Z,28.92
2018-11-10T22:40:05.133Z,20.30
2018-11-10T22:42:38.727Z,26.57
2018-11-10T22:45:13.986Z,23.62
2018-11-10T22:47:46.560Z,30.10
2018-11-10T22:50:20.450Z,37.50
2018-11-10T22:52:53.114Z,29.27
2018-11-10T22:55:28.125Z,29.90
2018-11-10T22:58:00.717Z,36.68
2018-11-10T23:00:32.916Z,30.15
2018-11-10T23:03:05.580Z,29.35
2018-11-10T23:05:38.955Z,32.30
2018-11-10T23:08:11.791Z,29.23
2018-11-10T23:10:44.854Z,33.35
2018-11-10T23:13:18.321Z,24.70
2018-11-10T23:15:52.974Z,33.28
2018-11-10T23:18:21.747Z,27.58
2018-11-10T23:20:50.612Z,27.55
2018-11-10T23:23:19.426Z,30.17
2018-11-10T23:25:54.427Z,28.70
2018-11-10T23:28:23.185Z,29.98
2018-11-10T23:30:51.900Z,29.15
2018-11-10T23:33:20.653Z,33.88
2018-11-10T23:35:49.401Z,44.20
2018-11-10T23:38:18.179Z,45.28
2018-11-10T23:40:46.991Z,45.98
2018-11-10T23:43:15.790Z,55.92
2018-11-10T23:45:44.532Z,39.20
2018-11-10T23:48:13.249Z,50.90
2018-11-10T23:50:42.020Z,44.77
2018-11-10T23:53:10.838Z,37.33
2018-11-10T23:55:39.653Z,38.40
2018-11-10T23:58:08.449Z,41.65
